createdAt,value
2019-05-13T00:02:21.297Z,"    0"
2019-05-13T00:07:16.841Z,"    0"
2019-05-13T00:12:14.007Z,"    0"
2019-05-13T00:17:09.421Z,"    0"
2019-05-13T00:22:06.039Z,"    0"
2019-05-13T00:27:03.846Z,"    0"
2019-05-13T00:31:59.871Z,"    0"
2019-05-13T00:37:07.841Z,"    0"
2019-05-13T00:41:54.482Z,"    0"
2019-05-13T00:46:50.188Z,"    0"
2019-05-13T00:51:45.796Z,"    0"
2019-05-13T00:56:43.585Z,"    0"
2019-05-13T01:01:38.502Z,"    0"
2019-05-13T01:06:34.330Z,"    0"
2019-05-13T01:11:30.180Z,"    0"
2019-05-13T01:16:26.081Z,"    0"
2019-05-13T01:21:23.852Z,"    0"
2019-05-13T01:26:19.633Z,"    0"
2019-05-13T01:31:15.288Z,"    0"
2019-05-13T01:36:10.772Z,"    0"
2019-05-13T01:41:07.906Z,"    0"
2019-05-13T01:46:04.474Z,"    0"
2019-05-13T01:50:59.922Z,"    0"
2019-05-13T01:55:55.875Z,"    0"
2019-05-13T02:00:54.902Z,"    0"
2019-05-13T02:05:50.054Z,"    0"
2019-05-13T02:10:45.657Z,"    0"
2019-05-13T02:15:41.411Z,"    0"
2019-05-13T02:20:38.137Z,"    0"
2019-05-13T02:25:34.058Z,"    0"
2019-05-13T02:30:30.541Z,"    0"
2019-05-13T02:35:26.173Z,"    0"
2019-05-13T02:40:22.746Z,"    0"
2019-05-13T02:45:18.287Z,"    0"
2019-05-13T02:50:13.903Z,"    0"
2019-05-13T02:55:12.377Z,"    0"
2019-05-13T03:00:07.461Z,"    4"
2019-05-13T03:05:03.517Z,"    0"
2019-05-13T03:09:59.208Z,"    8"
2019-05-13T03:14:55.869Z,"    8"
2019-05-13T03:19:52.951Z,"   20"
2019-05-13T03:24:52.152Z,"   40"
2019-05-13T03:29:46.826Z,"   72"
2019-05-13T03:34:45.631Z,"  112"
2019-05-13T03:39:43.443Z,"  176"
2019-05-13T03:44:42.601Z,"  252"
2019-05-13T03:49:37.151Z,"  348"
2019-05-13T03:54:33.657Z,"  456"
2019-05-13T03:59:32.910Z,"  572"
2019-05-13T04:04:28.293Z,"  696"
2019-05-13T04:09:31.044Z,"  840"
2019-05-13T04:14:23.525Z,"  956"
2019-05-13T04:19:22.939Z," 1296"
2019-05-13T04:24:17.802Z," 2108"
2019-05-13T04:29:13.764Z," 3516"
2019-05-13T04:34:12.402Z," 4220"
2019-05-13T04:39:08.540Z," 4920"
2019-05-13T04:44:06.523Z," 4436"
2019-05-13T04:49:03.305Z," 3268"
2019-05-13T04:53:58.608Z," 3784"
2019-05-13T04:58:54.105Z," 2904"
2019-05-13T05:03:52.788Z," 2780"
2019-05-13T05:08:48.219Z," 3088"
2019-05-13T05:13:44.821Z," 3444"
2019-05-13T05:18:42.212Z," 4068"
2019-05-13T05:23:39.031Z," 4880"
2019-05-13T05:28:34.817Z," 4440"
2019-05-13T05:33:31.914Z," 5652"
2019-05-13T05:38:28.294Z," 5816"
2019-05-13T05:43:25.459Z,10344
2019-05-13T05:48:22.640Z," 6836"
2019-05-13T05:53:18.648Z," 6504"
2019-05-13T05:58:14.376Z," 7184"
2019-05-13T06:03:13.756Z," 6792"
2019-05-13T06:08:11.274Z," 6848"
2019-05-13T06:13:06.463Z," 5876"
2019-05-13T06:18:02.338Z," 5612"
2019-05-13T06:22:57.779Z," 5528"
2019-05-13T06:27:53.909Z," 5668"
2019-05-13T06:32:49.455Z," 7104"
2019-05-13T06:37:45.902Z," 8684"
2019-05-13T06:42:42.736Z," 9696"
2019-05-13T06:47:41.304Z," 9588"
2019-05-13T06:52:36.661Z,10020
2019-05-13T06:57:33.772Z," 9544"
2019-05-13T07:02:31.844Z," 9316"
2019-05-13T07:07:28.482Z," 9616"
2019-05-13T07:12:23.893Z," 8468"
2019-05-13T07:17:22.285Z," 7884"
2019-05-13T07:22:17.625Z," 8548"
2019-05-13T07:27:14.147Z," 8476"
2019-05-13T07:32:11.992Z," 8228"
2019-05-13T07:37:07.562Z," 6480"
2019-05-13T07:42:05.916Z," 5168"
2019-05-13T07:47:03.613Z,18048
2019-05-13T07:52:02.048Z,50528
2019-05-13T07:57:01.865Z,47200
2019-05-13T08:02:02.173Z,50752
2019-05-13T08:07:01.887Z,57728
2019-05-13T08:12:06.485Z,52256
2019-05-13T08:17:02.292Z,59776
2019-05-13T08:22:01.964Z,39936
2019-05-13T08:27:01.631Z,55456
2019-05-13T08:31:57.289Z,58304
2019-05-13T08:36:53.658Z,54816
2019-05-13T08:41:51.537Z,62048
2019-05-13T08:46:47.125Z,54432
2019-05-13T08:51:42.761Z,12176
2019-05-13T08:56:38.280Z,27232
2019-05-13T09:01:33.023Z,70784
2019-05-13T09:06:31.265Z,44992
2019-05-13T09:11:24.930Z," 7424"
2019-05-13T09:16:21.601Z,78624
2019-05-13T09:21:22.291Z,47520
2019-05-13T09:26:18.255Z,56960
2019-05-13T09:31:14.260Z,67040
2019-05-13T09:36:12.538Z,85824
2019-05-13T09:41:08.622Z,58944
2019-05-13T09:46:04.880Z,69344
2019-05-13T09:51:02.520Z,65280
2019-05-13T09:55:58.104Z,88032
2019-05-13T10:00:54.001Z,75872
2019-05-13T10:05:51.789Z,81824
2019-05-13T10:10:47.741Z,70048
2019-05-13T10:15:48.517Z,92992
2019-05-13T10:20:44.124Z,81824
2019-05-13T10:25:39.622Z,75712
2019-05-13T10:30:37.020Z,86944
2019-05-13T10:35:33.146Z,67232
2019-05-13T10:40:31.956Z,72480
2019-05-13T10:45:27.981Z,73344
2019-05-13T10:50:27.670Z,87712
2019-05-13T10:55:22.989Z,68768
2019-05-13T11:00:19.106Z,89760
2019-05-13T11:05:15.210Z,76096
2019-05-13T11:10:13.547Z,73696
2019-05-13T11:15:09.821Z,93696
2019-05-13T11:20:07.844Z,79360
2019-05-13T11:25:04.143Z,78688
2019-05-13T11:30:05.440Z,91904
2019-05-13T11:35:01.923Z,110688
2019-05-13T11:39:57.742Z,124512
2019-05-13T11:44:53.838Z,90304
2019-05-13T11:49:52.218Z,90432
2019-05-13T11:54:47.472Z,118304
2019-05-13T11:59:43.908Z,88352
2019-05-13T12:04:43.055Z,72032
2019-05-13T12:09:38.970Z,90656
2019-05-13T12:14:48.437Z,86656
2019-05-13T12:19:34.910Z,97120
2019-05-13T12:24:30.713Z,98912
2019-05-13T12:29:27.243Z,81152
2019-05-13T12:34:23.659Z,62144
2019-05-13T12:39:18.926Z,68992
2019-05-13T12:44:13.254Z," 5032"
2019-05-13T12:49:07.262Z,28256
2019-05-13T12:54:04.184Z,102112
2019-05-13T12:59:02.947Z,96224
2019-05-13T13:03:58.538Z,110720
2019-05-13T13:08:55.390Z,112512
2019-05-13T13:18:52.701Z,60384
2019-05-13T13:23:48.926Z," 8464"
2019-05-13T13:28:44.631Z," 5396"
2019-05-13T13:33:43.412Z," 4288"
2019-05-13T13:38:42.702Z," 3808"
2019-05-13T13:43:42.197Z," 3488"
2019-05-13T13:48:38.004Z," 2932"
2019-05-13T13:53:33.573Z," 3192"
2019-05-13T13:58:29.045Z," 3116"
2019-05-13T14:03:24.805Z," 2972"
2019-05-13T14:07:13.009Z,78464
2019-05-13T14:08:21.710Z," 2916"
2019-05-13T14:13:17.210Z," 2776"
2019-05-13T14:18:13.721Z," 2600"
2019-05-13T14:23:12.422Z," 2548"
2019-05-13T14:28:07.066Z," 2544"
2019-05-13T14:33:02.544Z," 2500"
2019-05-13T14:37:59.332Z," 2444"
2019-05-13T14:42:54.913Z," 2372"
2019-05-13T14:47:50.767Z," 2328"
2019-05-13T14:52:46.364Z," 2288"
2019-05-13T14:57:42.737Z," 2244"
2019-05-13T15:02:38.985Z," 2220"
2019-05-13T15:07:34.896Z," 2180"
2019-05-13T15:12:32.257Z," 2164"
2019-05-13T15:17:27.913Z," 2148"
2019-05-13T15:22:23.723Z," 2112"
2019-05-13T15:27:22.273Z," 2112"
2019-05-13T15:32:17.248Z," 2080"
2019-05-13T15:37:13.575Z," 2072"
2019-05-13T15:42:11.847Z," 2036"
2019-05-13T15:47:22.217Z," 1988"
2019-05-13T15:52:08.101Z," 2008"
2019-05-13T15:57:03.331Z," 1984"
2019-05-13T16:02:02.058Z," 1980"
2019-05-13T16:06:57.567Z," 1940"
2019-05-13T16:11:54.081Z," 1944"
2019-05-13T16:16:50.557Z," 1936"
2019-05-13T16:21:46.785Z," 1896"
2019-05-13T16:26:43.060Z," 1920"
2019-05-13T16:31:41.347Z," 1860"
2019-05-13T16:36:36.772Z," 1860"
2019-05-13T16:41:33.549Z," 1808"
2019-05-13T16:46:31.415Z," 1796"
2019-05-13T16:51:26.730Z," 1764"
2019-05-13T16:56:27.696Z," 1720"
2019-05-13T17:01:22.022Z," 1696"
2019-05-13T17:06:17.529Z," 1680"
2019-05-13T17:11:13.345Z," 1632"
2019-05-13T17:16:10.738Z," 1600"
2019-05-13T17:21:06.413Z," 1572"
2019-05-13T17:26:03.309Z," 1536"
2019-05-13T17:30:58.888Z," 1492"
2019-05-13T17:35:54.580Z," 1460"
2019-05-13T17:40:52.944Z," 1416"
2019-05-13T17:45:49.419Z," 1372"
2019-05-13T17:50:45.569Z," 1312"
2019-05-13T17:55:41.469Z," 1268"
2019-05-13T18:00:37.218Z," 1208"
2019-05-13T18:05:33.144Z," 1156"
2019-05-13T18:10:31.781Z," 1100"
2019-05-13T18:15:27.431Z," 1032"
2019-05-13T18:20:23.293Z,"  956"
2019-05-13T18:25:22.163Z,"  880"
2019-05-13T18:35:16.902Z,"  716"
2019-05-13T18:40:12.707Z,"  640"
2019-05-13T18:45:08.547Z,"  544"
2019-05-13T18:50:04.159Z,"  460"
2019-05-13T18:55:02.117Z,"  372"
2019-05-13T18:59:57.577Z,"  292"
2019-05-13T19:04:53.162Z,"  216"
2019-05-13T19:09:48.947Z,"  152"
2019-05-13T19:14:44.602Z,"  104"
2019-05-13T19:19:42.063Z,"   64"
2019-05-13T19:24:37.454Z,"   40"
2019-05-13T19:29:33.595Z,"   20"
2019-05-13T19:34:29.166Z,"   12"
2019-05-13T19:39:25.028Z,"    8"
2019-05-13T19:44:22.069Z,"    0"
2019-05-13T19:49:29.779Z,"    0"
2019-05-13T19:54:17.197Z,"    0"
2019-05-13T19:59:13.005Z,"    0"
2019-05-13T20:04:08.982Z,"    0"
2019-05-13T20:09:04.803Z,"    0"
2019-05-13T20:14:01.553Z,"    0"
2019-05-13T20:18:58.548Z,"    0"
2019-05-13T20:23:54.059Z,"    0"
2019-05-13T20:28:51.331Z,"    0"
2019-05-13T20:33:46.830Z,"    0"
2019-05-13T20:38:42.977Z,"    0"
2019-05-13T20:43:38.776Z,"    0"
2019-05-13T20:48:35.510Z,"    0"
2019-05-13T20:53:31.162Z,"    0"
2019-05-13T20:58:26.955Z,"    0"
2019-05-13T21:03:22.561Z,"    0"
2019-05-13T21:08:18.357Z,"    0"
2019-05-13T21:13:15.089Z,"    0"
2019-05-13T21:18:11.455Z,"    0"
2019-05-13T21:23:06.732Z,"    0"
2019-05-13T21:28:03.371Z,"    0"
2019-05-13T21:32:58.791Z,"    0"
2019-05-13T21:37:54.516Z,"    0"
2019-05-13T21:42:52.453Z,"    0"
2019-05-13T21:47:47.815Z,"    0"
2019-05-13T21:52:43.674Z,"    0"
2019-05-13T21:57:41.455Z,"    0"
2019-05-13T22:02:36.681Z,"    0"
2019-05-13T22:07:33.183Z,"    0"
2019-05-13T22:12:28.892Z,"    0"
2019-05-13T22:17:25.372Z,"    0"
2019-05-13T22:22:22.093Z,"    0"
2019-05-13T22:27:17.821Z,"    0"
2019-05-13T22:32:14.418Z,"    0"
2019-05-13T22:37:11.691Z,"    0"
2019-05-13T22:42:06.664Z,"    0"
2019-05-13T22:47:02.755Z,"    0"
2019-05-13T22:51:58.541Z,"    0"
2019-05-13T22:56:54.220Z,"    0"
2019-05-13T23:01:52.221Z,"    0"
2019-05-13T23:06:47.140Z,"    0"
2019-05-13T23:11:43.728Z,"    0"
2019-05-13T23:16:39.404Z,"    0"
2019-05-13T23:21:35.923Z,"    0"
2019-05-13T23:26:32.819Z,"    0"
2019-05-13T23:31:28.083Z,"    0"
2019-05-13T23:36:23.688Z,"    0"
2019-05-13T23:41:21.659Z,"    0"
2019-05-13T23:46:16.865Z,"    0"
2019-05-13T23:51:13.074Z,"    0"
2019-05-13T23:56:11.110Z,"    0"
